<?xml version="1.0" encoding="UTF-8" standalone="no" ?>
<gpx xmlns="http://www.topografix.com/GPX/1/1" xmlns:xsi="http://www.w3.org/2001/XMLSchema-instance" xsi:schemaLocation="http://www.topografix.com/GPX/1/1 http://www.topografix.com/GPX/1/1/gpx.xsd" version="1.1" creator="VisuGPX - https://www.visugpx.com">
  <metadata>
    <name>BREANCON</name>
  </metadata>
  <trk>
    <name><![CDATA[BREANCON-15823758]]></name>
    <trkseg>
      <trkpt lat="49.14307" lon="2.02167">
        <ele>151</ele>
        <time>2023-01-08T17:59:42Z</time>
      </trkpt>
      <trkpt lat="49.14297" lon="2.02162">
        <ele>152</ele>
        <time>2023-01-08T17:59:56Z</time>
      </trkpt>
      <trkpt lat="49.14297" lon="2.02172">
        <ele>152</ele>
        <time>2023-01-08T18:00:05Z</time>
      </trkpt>
      <trkpt lat="49.14298" lon="2.02167">
        <ele>152</ele>
        <time>2023-01-08T18:00:09Z</time>
      </trkpt>
      <trkpt lat="49.14268" lon="2.02171">
        <ele>154</ele>
        <time>2023-01-08T18:00:50Z</time>
      </trkpt>
      <trkpt lat="49.14258" lon="2.02168">
        <ele>154</ele>
        <time>2023-01-08T18:01:03Z</time>
      </trkpt>
      <trkpt lat="49.14239" lon="2.02142">
        <ele>155</ele>
        <time>2023-01-08T18:01:37Z</time>
      </trkpt>
      <trkpt lat="49.14236" lon="2.02113">
        <ele>155</ele>
        <time>2023-01-08T18:02:03Z</time>
      </trkpt>
      <trkpt lat="49.14239" lon="2.02088">
        <ele>155</ele>
        <time>2023-01-08T18:02:25Z</time>
      </trkpt>
      <trkpt lat="49.14261" lon="2.02038">
        <ele>155</ele>
        <time>2023-01-08T18:03:18Z</time>
      </trkpt>
      <trkpt lat="49.14305" lon="2.01975">
        <ele>152</ele>
        <time>2023-01-08T18:04:38Z</time>
      </trkpt>
      <trkpt lat="49.14312" lon="2.01959">
        <ele>152</ele>
        <time>2023-01-08T18:04:55Z</time>
      </trkpt>
      <trkpt lat="49.1432" lon="2.01922">
        <ele>151</ele>
        <time>2023-01-08T18:05:29Z</time>
      </trkpt>
      <trkpt lat="49.14321" lon="2.01885">
        <ele>150</ele>
        <time>2023-01-08T18:06:01Z</time>
      </trkpt>
      <trkpt lat="49.14306" lon="2.01856">
        <ele>151</ele>
        <time>2023-01-08T18:06:33Z</time>
      </trkpt>
      <trkpt lat="49.14299" lon="2.01819">
        <ele>150</ele>
        <time>2023-01-08T18:07:07Z</time>
      </trkpt>
      <trkpt lat="49.14309" lon="2.01764">
        <ele>149</ele>
        <time>2023-01-08T18:07:57Z</time>
      </trkpt>
      <trkpt lat="49.14328" lon="2.01715">
        <ele>148</ele>
        <time>2023-01-08T18:08:47Z</time>
      </trkpt>
      <trkpt lat="49.14336" lon="2.01707">
        <ele>148</ele>
        <time>2023-01-08T18:08:59Z</time>
      </trkpt>
      <trkpt lat="49.1437" lon="2.01643">
        <ele>149</ele>
        <time>2023-01-08T18:10:11Z</time>
      </trkpt>
      <trkpt lat="49.14398" lon="2.01607">
        <ele>152</ele>
        <time>2023-01-08T18:11:00Z</time>
      </trkpt>
      <trkpt lat="49.14421" lon="2.01555">
        <ele>155</ele>
        <time>2023-01-08T18:11:55Z</time>
      </trkpt>
      <trkpt lat="49.14437" lon="2.0154">
        <ele>155</ele>
        <time>2023-01-08T18:12:20Z</time>
      </trkpt>
      <trkpt lat="49.1446" lon="2.01508">
        <ele>155</ele>
        <time>2023-01-08T18:13:02Z</time>
      </trkpt>
      <trkpt lat="49.14471" lon="2.01485">
        <ele>156</ele>
        <time>2023-01-08T18:13:26Z</time>
      </trkpt>
      <trkpt lat="49.14492" lon="2.01462">
        <ele>157</ele>
        <time>2023-01-08T18:14:01Z</time>
      </trkpt>
      <trkpt lat="49.14515" lon="2.01425">
        <ele>158</ele>
        <time>2023-01-08T18:14:45Z</time>
      </trkpt>
      <trkpt lat="49.14554" lon="2.01329">
        <ele>159</ele>
        <time>2023-01-08T18:16:24Z</time>
      </trkpt>
      <trkpt lat="49.14586" lon="2.01236">
        <ele>162</ele>
        <time>2023-01-08T18:17:56Z</time>
      </trkpt>
      <trkpt lat="49.14612" lon="2.0119">
        <ele>164</ele>
        <time>2023-01-08T18:18:49Z</time>
      </trkpt>
      <trkpt lat="49.14635" lon="2.01178">
        <ele>164</ele>
        <time>2023-01-08T18:19:21Z</time>
      </trkpt>
      <trkpt lat="49.14648" lon="2.01164">
        <ele>164</ele>
        <time>2023-01-08T18:19:43Z</time>
      </trkpt>
      <trkpt lat="49.14676" lon="2.01147">
        <ele>166</ele>
        <time>2023-01-08T18:20:23Z</time>
      </trkpt>
      <trkpt lat="49.14722" lon="2.01097">
        <ele>173</ele>
        <time>2023-01-08T18:21:38Z</time>
      </trkpt>
      <trkpt lat="49.14732" lon="2.01077">
        <ele>176</ele>
        <time>2023-01-08T18:22:00Z</time>
      </trkpt>
      <trkpt lat="49.14749" lon="2.01059">
        <ele>177</ele>
        <time>2023-01-08T18:22:28Z</time>
      </trkpt>
      <trkpt lat="49.14758" lon="2.01043">
        <ele>179</ele>
        <time>2023-01-08T18:22:46Z</time>
      </trkpt>
      <trkpt lat="49.14771" lon="2.01037">
        <ele>180</ele>
        <time>2023-01-08T18:23:04Z</time>
      </trkpt>
      <trkpt lat="49.14792" lon="2.01017">
        <ele>182</ele>
        <time>2023-01-08T18:23:37Z</time>
      </trkpt>
      <trkpt lat="49.1481" lon="2.00976">
        <ele>186</ele>
        <time>2023-01-08T18:24:20Z</time>
      </trkpt>
      <trkpt lat="49.14821" lon="2.00959">
        <ele>187</ele>
        <time>2023-01-08T18:24:41Z</time>
      </trkpt>
      <trkpt lat="49.14833" lon="2.0095">
        <ele>189</ele>
        <time>2023-01-08T18:24:59Z</time>
      </trkpt>
      <trkpt lat="49.14835" lon="2.00941">
        <ele>189</ele>
        <time>2023-01-08T18:25:07Z</time>
      </trkpt>
      <trkpt lat="49.14856" lon="2.00913">
        <ele>191</ele>
        <time>2023-01-08T18:25:44Z</time>
      </trkpt>
      <trkpt lat="49.14901" lon="2.00832">
        <ele>192</ele>
        <time>2023-01-08T18:27:17Z</time>
      </trkpt>
      <trkpt lat="49.14924" lon="2.00818">
        <ele>192</ele>
        <time>2023-01-08T18:27:50Z</time>
      </trkpt>
      <trkpt lat="49.14949" lon="2.00783">
        <ele>191</ele>
        <time>2023-01-08T18:28:35Z</time>
      </trkpt>
      <trkpt lat="49.14975" lon="2.00761">
        <ele>192</ele>
        <time>2023-01-08T18:29:15Z</time>
      </trkpt>
      <trkpt lat="49.15031" lon="2.0073">
        <ele>195</ele>
        <time>2023-01-08T18:30:35Z</time>
      </trkpt>
      <trkpt lat="49.15036" lon="2.00722">
        <ele>195</ele>
        <time>2023-01-08T18:30:44Z</time>
      </trkpt>
      <trkpt lat="49.15038" lon="2.007">
        <ele>194</ele>
        <time>2023-01-08T18:31:04Z</time>
      </trkpt>
      <trkpt lat="49.15056" lon="2.00669">
        <ele>195</ele>
        <time>2023-01-08T18:31:40Z</time>
      </trkpt>
      <trkpt lat="49.15081" lon="2.00644">
        <ele>196</ele>
        <time>2023-01-08T18:32:20Z</time>
      </trkpt>
      <trkpt lat="49.15093" lon="2.00637">
        <ele>197</ele>
        <time>2023-01-08T18:32:37Z</time>
      </trkpt>
      <trkpt lat="49.15118" lon="2.00609">
        <ele>199</ele>
        <time>2023-01-08T18:33:18Z</time>
      </trkpt>
      <trkpt lat="49.15134" lon="2.00603">
        <ele>200</ele>
        <time>2023-01-08T18:33:40Z</time>
      </trkpt>
      <trkpt lat="49.15145" lon="2.00578">
        <ele>201</ele>
        <time>2023-01-08T18:34:07Z</time>
      </trkpt>
      <trkpt lat="49.15181" lon="2.00529">
        <ele>202</ele>
        <time>2023-01-08T18:35:11Z</time>
      </trkpt>
      <trkpt lat="49.15183" lon="2.00513">
        <ele>202</ele>
        <time>2023-01-08T18:35:25Z</time>
      </trkpt>
      <trkpt lat="49.15193" lon="2.00508">
        <ele>202</ele>
        <time>2023-01-08T18:35:39Z</time>
      </trkpt>
      <trkpt lat="49.15196" lon="2.00489">
        <ele>202</ele>
        <time>2023-01-08T18:35:56Z</time>
      </trkpt>
      <trkpt lat="49.15206" lon="2.00467">
        <ele>201</ele>
        <time>2023-01-08T18:36:20Z</time>
      </trkpt>
      <trkpt lat="49.1522" lon="2.0045">
        <ele>201</ele>
        <time>2023-01-08T18:36:43Z</time>
      </trkpt>
      <trkpt lat="49.15253" lon="2.00378">
        <ele>204</ele>
        <time>2023-01-08T18:38:00Z</time>
      </trkpt>
      <trkpt lat="49.1526" lon="2.00369">
        <ele>205</ele>
        <time>2023-01-08T18:38:12Z</time>
      </trkpt>
      <trkpt lat="49.15267" lon="2.00372">
        <ele>205</ele>
        <time>2023-01-08T18:38:22Z</time>
      </trkpt>
      <trkpt lat="49.15276" lon="2.00358">
        <ele>205</ele>
        <time>2023-01-08T18:38:39Z</time>
      </trkpt>
      <trkpt lat="49.15292" lon="2.00344">
        <ele>207</ele>
        <time>2023-01-08T18:39:04Z</time>
      </trkpt>
      <trkpt lat="49.15293" lon="2.0033">
        <ele>207</ele>
        <time>2023-01-08T18:39:16Z</time>
      </trkpt>
      <trkpt lat="49.15308" lon="2.00291">
        <ele>208</ele>
        <time>2023-01-08T18:39:56Z</time>
      </trkpt>
      <trkpt lat="49.15337" lon="2.00228">
        <ele>209</ele>
        <time>2023-01-08T18:41:03Z</time>
      </trkpt>
      <trkpt lat="49.15393" lon="2.00134">
        <ele>208</ele>
        <time>2023-01-08T18:42:54Z</time>
      </trkpt>
      <trkpt lat="49.15397" lon="2.00146">
        <ele>209</ele>
        <time>2023-01-08T18:43:06Z</time>
      </trkpt>
      <trkpt lat="49.15414" lon="2.00169">
        <ele>209</ele>
        <time>2023-01-08T18:43:36Z</time>
      </trkpt>
      <trkpt lat="49.15417" lon="2.00183">
        <ele>208</ele>
        <time>2023-01-08T18:43:49Z</time>
      </trkpt>
      <trkpt lat="49.15439" lon="2.00229">
        <ele>203</ele>
        <time>2023-01-08T18:44:38Z</time>
      </trkpt>
      <trkpt lat="49.15446" lon="2.00257">
        <ele>200</ele>
        <time>2023-01-08T18:45:05Z</time>
      </trkpt>
      <trkpt lat="49.15458" lon="2.0028">
        <ele>197</ele>
        <time>2023-01-08T18:45:30Z</time>
      </trkpt>
      <trkpt lat="49.15461" lon="2.00326">
        <ele>194</ele>
        <time>2023-01-08T18:46:11Z</time>
      </trkpt>
      <trkpt lat="49.15455" lon="2.00343">
        <ele>194</ele>
        <time>2023-01-08T18:46:27Z</time>
      </trkpt>
      <trkpt lat="49.15456" lon="2.00352">
        <ele>194</ele>
        <time>2023-01-08T18:46:35Z</time>
      </trkpt>
      <trkpt lat="49.15469" lon="2.00375">
        <ele>191</ele>
        <time>2023-01-08T18:47:02Z</time>
      </trkpt>
      <trkpt lat="49.15475" lon="2.0041">
        <ele>189</ele>
        <time>2023-01-08T18:47:34Z</time>
      </trkpt>
      <trkpt lat="49.15485" lon="2.00429">
        <ele>187</ele>
        <time>2023-01-08T18:47:55Z</time>
      </trkpt>
      <trkpt lat="49.15525" lon="2.00471">
        <ele>180</ele>
        <time>2023-01-08T18:49:00Z</time>
      </trkpt>
      <trkpt lat="49.15551" lon="2.00509">
        <ele>177</ele>
        <time>2023-01-08T18:49:48Z</time>
      </trkpt>
      <trkpt lat="49.15563" lon="2.00549">
        <ele>173</ele>
        <time>2023-01-08T18:50:26Z</time>
      </trkpt>
      <trkpt lat="49.15587" lon="2.0059">
        <ele>170</ele>
        <time>2023-01-08T18:51:14Z</time>
      </trkpt>
      <trkpt lat="49.15588" lon="2.00604">
        <ele>169</ele>
        <time>2023-01-08T18:51:26Z</time>
      </trkpt>
      <trkpt lat="49.15604" lon="2.00651">
        <ele>163</ele>
        <time>2023-01-08T18:52:13Z</time>
      </trkpt>
      <trkpt lat="49.15639" lon="2.00632">
        <ele>162</ele>
        <time>2023-01-08T18:53:02Z</time>
      </trkpt>
      <trkpt lat="49.15642" lon="2.00622">
        <ele>163</ele>
        <time>2023-01-08T18:53:12Z</time>
      </trkpt>
      <trkpt lat="49.15655" lon="2.00606">
        <ele>162</ele>
        <time>2023-01-08T18:53:34Z</time>
      </trkpt>
      <trkpt lat="49.15675" lon="2.00595">
        <ele>159</ele>
        <time>2023-01-08T18:54:02Z</time>
      </trkpt>
      <trkpt lat="49.15684" lon="2.0056">
        <ele>158</ele>
        <time>2023-01-08T18:54:35Z</time>
      </trkpt>
      <trkpt lat="49.15686" lon="2.00515">
        <ele>158</ele>
        <time>2023-01-08T18:55:14Z</time>
      </trkpt>
      <trkpt lat="49.15692" lon="2.00502">
        <ele>157</ele>
        <time>2023-01-08T18:55:28Z</time>
      </trkpt>
      <trkpt lat="49.15686" lon="2.00475">
        <ele>158</ele>
        <time>2023-01-08T18:55:53Z</time>
      </trkpt>
      <trkpt lat="49.15702" lon="2.00427">
        <ele>154</ele>
        <time>2023-01-08T18:56:40Z</time>
      </trkpt>
      <trkpt lat="49.15722" lon="2.00394">
        <ele>153</ele>
        <time>2023-01-08T18:57:20Z</time>
      </trkpt>
      <trkpt lat="49.15751" lon="2.00372">
        <ele>151</ele>
        <time>2023-01-08T18:58:03Z</time>
      </trkpt>
      <trkpt lat="49.15775" lon="2.00341">
        <ele>152</ele>
        <time>2023-01-08T18:58:45Z</time>
      </trkpt>
      <trkpt lat="49.15819" lon="2.0026">
        <ele>151</ele>
        <time>2023-01-08T19:00:17Z</time>
      </trkpt>
      <trkpt lat="49.1585" lon="2.00216">
        <ele>151</ele>
        <time>2023-01-08T19:01:13Z</time>
      </trkpt>
      <trkpt lat="49.15914" lon="2.00173">
        <ele>149</ele>
        <time>2023-01-08T19:02:46Z</time>
      </trkpt>
      <trkpt lat="49.15992" lon="2.00139">
        <ele>151</ele>
        <time>2023-01-08T19:04:35Z</time>
      </trkpt>
      <trkpt lat="49.1602" lon="2.00144">
        <ele>154</ele>
        <time>2023-01-08T19:05:12Z</time>
      </trkpt>
      <trkpt lat="49.16035" lon="2.00153">
        <ele>156</ele>
        <time>2023-01-08T19:05:34Z</time>
      </trkpt>
      <trkpt lat="49.16051" lon="2.00176">
        <ele>157</ele>
        <time>2023-01-08T19:06:03Z</time>
      </trkpt>
      <trkpt lat="49.16041" lon="2.00152">
        <ele>157</ele>
        <time>2023-01-08T19:06:28Z</time>
      </trkpt>
      <trkpt lat="49.16049" lon="2.00155">
        <ele>157</ele>
        <time>2023-01-08T19:06:39Z</time>
      </trkpt>
      <trkpt lat="49.16065" lon="2.00148">
        <ele>160</ele>
        <time>2023-01-08T19:07:01Z</time>
      </trkpt>
      <trkpt lat="49.16085" lon="2.00133">
        <ele>163</ele>
        <time>2023-01-08T19:07:31Z</time>
      </trkpt>
      <trkpt lat="49.161" lon="2.00125">
        <ele>164</ele>
        <time>2023-01-08T19:07:52Z</time>
      </trkpt>
      <trkpt lat="49.16103" lon="2.00127">
        <ele>164</ele>
        <time>2023-01-08T19:07:56Z</time>
      </trkpt>
      <trkpt lat="49.16106" lon="2.00121">
        <ele>165</ele>
        <time>2023-01-08T19:08:03Z</time>
      </trkpt>
      <trkpt lat="49.16133" lon="2.00113">
        <ele>166</ele>
        <time>2023-01-08T19:08:40Z</time>
      </trkpt>
      <trkpt lat="49.16142" lon="2.00104">
        <ele>166</ele>
        <time>2023-01-08T19:08:54Z</time>
      </trkpt>
      <trkpt lat="49.16154" lon="2.00105">
        <ele>167</ele>
        <time>2023-01-08T19:09:10Z</time>
      </trkpt>
      <trkpt lat="49.16171" lon="2.00091">
        <ele>167</ele>
        <time>2023-01-08T19:09:36Z</time>
      </trkpt>
      <trkpt lat="49.16185" lon="2.00093">
        <ele>166</ele>
        <time>2023-01-08T19:09:55Z</time>
      </trkpt>
      <trkpt lat="49.16206" lon="2.00085">
        <ele>166</ele>
        <time>2023-01-08T19:10:23Z</time>
      </trkpt>
      <trkpt lat="49.16222" lon="2.00075">
        <ele>165</ele>
        <time>2023-01-08T19:10:46Z</time>
      </trkpt>
      <trkpt lat="49.16241" lon="2.00054">
        <ele>164</ele>
        <time>2023-01-08T19:11:18Z</time>
      </trkpt>
      <trkpt lat="49.16262" lon="2.00043">
        <ele>163</ele>
        <time>2023-01-08T19:11:47Z</time>
      </trkpt>
      <trkpt lat="49.16307" lon="2.00009">
        <ele>159</ele>
        <time>2023-01-08T19:12:54Z</time>
      </trkpt>
      <trkpt lat="49.16328" lon="1.99988">
        <ele>157</ele>
        <time>2023-01-08T19:13:28Z</time>
      </trkpt>
      <trkpt lat="49.16352" lon="1.99975">
        <ele>157</ele>
        <time>2023-01-08T19:14:02Z</time>
      </trkpt>
      <trkpt lat="49.16367" lon="2.00012">
        <ele>155</ele>
        <time>2023-01-08T19:14:40Z</time>
      </trkpt>
      <trkpt lat="49.16367" lon="2.00037">
        <ele>154</ele>
        <time>2023-01-08T19:15:02Z</time>
      </trkpt>
      <trkpt lat="49.16377" lon="2.00089">
        <ele>152</ele>
        <time>2023-01-08T19:15:49Z</time>
      </trkpt>
      <trkpt lat="49.16418" lon="2.00232">
        <ele>146</ele>
        <time>2023-01-08T19:18:05Z</time>
      </trkpt>
      <trkpt lat="49.16435" lon="2.00318">
        <ele>143</ele>
        <time>2023-01-08T19:19:24Z</time>
      </trkpt>
      <trkpt lat="49.16448" lon="2.00358">
        <ele>141</ele>
        <time>2023-01-08T19:20:03Z</time>
      </trkpt>
      <trkpt lat="49.16442" lon="2.00417">
        <ele>139</ele>
        <time>2023-01-08T19:20:55Z</time>
      </trkpt>
      <trkpt lat="49.16445" lon="2.00437">
        <ele>138</ele>
        <time>2023-01-08T19:21:13Z</time>
      </trkpt>
      <trkpt lat="49.16461" lon="2.00474">
        <ele>137</ele>
        <time>2023-01-08T19:21:51Z</time>
      </trkpt>
      <trkpt lat="49.16482" lon="2.00555">
        <ele>134</ele>
        <time>2023-01-08T19:23:07Z</time>
      </trkpt>
      <trkpt lat="49.16487" lon="2.00559">
        <ele>133</ele>
        <time>2023-01-08T19:23:15Z</time>
      </trkpt>
      <trkpt lat="49.16506" lon="2.00553">
        <ele>133</ele>
        <time>2023-01-08T19:23:41Z</time>
      </trkpt>
      <trkpt lat="49.16522" lon="2.00553">
        <ele>133</ele>
        <time>2023-01-08T19:24:02Z</time>
      </trkpt>
      <trkpt lat="49.16576" lon="2.00536">
        <ele>134</ele>
        <time>2023-01-08T19:25:16Z</time>
      </trkpt>
      <trkpt lat="49.16617" lon="2.00554">
        <ele>136</ele>
        <time>2023-01-08T19:26:13Z</time>
      </trkpt>
      <trkpt lat="49.16637" lon="2.00573">
        <ele>136</ele>
        <time>2023-01-08T19:26:44Z</time>
      </trkpt>
      <trkpt lat="49.1667" lon="2.00588">
        <ele>138</ele>
        <time>2023-01-08T19:27:30Z</time>
      </trkpt>
      <trkpt lat="49.16687" lon="2.00591">
        <ele>138</ele>
        <time>2023-01-08T19:27:53Z</time>
      </trkpt>
      <trkpt lat="49.16727" lon="2.00588">
        <ele>140</ele>
        <time>2023-01-08T19:28:46Z</time>
      </trkpt>
      <trkpt lat="49.16733" lon="2.00586">
        <ele>140</ele>
        <time>2023-01-08T19:28:54Z</time>
      </trkpt>
      <trkpt lat="49.16737" lon="2.00579">
        <ele>141</ele>
        <time>2023-01-08T19:29:02Z</time>
      </trkpt>
      <trkpt lat="49.16759" lon="2.00575">
        <ele>141</ele>
        <time>2023-01-08T19:29:32Z</time>
      </trkpt>
      <trkpt lat="49.16776" lon="2.00556">
        <ele>142</ele>
        <time>2023-01-08T19:30:00Z</time>
      </trkpt>
      <trkpt lat="49.16798" lon="2.00542">
        <ele>142</ele>
        <time>2023-01-08T19:30:32Z</time>
      </trkpt>
      <trkpt lat="49.16814" lon="2.00538">
        <ele>143</ele>
        <time>2023-01-08T19:30:54Z</time>
      </trkpt>
      <trkpt lat="49.16862" lon="2.00495">
        <ele>146</ele>
        <time>2023-01-08T19:32:08Z</time>
      </trkpt>
      <trkpt lat="49.16882" lon="2.00486">
        <ele>147</ele>
        <time>2023-01-08T19:32:36Z</time>
      </trkpt>
      <trkpt lat="49.16923" lon="2.00451">
        <ele>151</ele>
        <time>2023-01-08T19:33:38Z</time>
      </trkpt>
      <trkpt lat="49.16945" lon="2.0044">
        <ele>153</ele>
        <time>2023-01-08T19:34:09Z</time>
      </trkpt>
      <trkpt lat="49.16951" lon="2.0043">
        <ele>155</ele>
        <time>2023-01-08T19:34:21Z</time>
      </trkpt>
      <trkpt lat="49.16963" lon="2.00422">
        <ele>156</ele>
        <time>2023-01-08T19:34:38Z</time>
      </trkpt>
      <trkpt lat="49.16973" lon="2.00405">
        <ele>158</ele>
        <time>2023-01-08T19:34:58Z</time>
      </trkpt>
      <trkpt lat="49.16982" lon="2.00399">
        <ele>159</ele>
        <time>2023-01-08T19:35:12Z</time>
      </trkpt>
      <trkpt lat="49.16985" lon="2.00391">
        <ele>160</ele>
        <time>2023-01-08T19:35:20Z</time>
      </trkpt>
      <trkpt lat="49.17004" lon="2.00382">
        <ele>162</ele>
        <time>2023-01-08T19:35:46Z</time>
      </trkpt>
      <trkpt lat="49.17027" lon="2.00358">
        <ele>166</ele>
        <time>2023-01-08T19:36:23Z</time>
      </trkpt>
      <trkpt lat="49.17075" lon="2.00323">
        <ele>170</ele>
        <time>2023-01-08T19:37:34Z</time>
      </trkpt>
      <trkpt lat="49.17084" lon="2.00304">
        <ele>170</ele>
        <time>2023-01-08T19:37:55Z</time>
      </trkpt>
      <trkpt lat="49.17116" lon="2.00282">
        <ele>174</ele>
        <time>2023-01-08T19:38:42Z</time>
      </trkpt>
      <trkpt lat="49.17118" lon="2.00268">
        <ele>174</ele>
        <time>2023-01-08T19:38:54Z</time>
      </trkpt>
      <trkpt lat="49.17148" lon="2.00232">
        <ele>178</ele>
        <time>2023-01-08T19:39:45Z</time>
      </trkpt>
      <trkpt lat="49.17162" lon="2.0023">
        <ele>179</ele>
        <time>2023-01-08T19:40:04Z</time>
      </trkpt>
      <trkpt lat="49.17184" lon="2.00216">
        <ele>181</ele>
        <time>2023-01-08T19:40:35Z</time>
      </trkpt>
      <trkpt lat="49.17192" lon="2.00196">
        <ele>180</ele>
        <time>2023-01-08T19:40:56Z</time>
      </trkpt>
      <trkpt lat="49.17198" lon="2.00198">
        <ele>181</ele>
        <time>2023-01-08T19:41:04Z</time>
      </trkpt>
      <trkpt lat="49.17202" lon="2.00193">
        <ele>181</ele>
        <time>2023-01-08T19:41:11Z</time>
      </trkpt>
      <trkpt lat="49.1721" lon="2.00204">
        <ele>182</ele>
        <time>2023-01-08T19:41:25Z</time>
      </trkpt>
      <trkpt lat="49.17205" lon="2.00204">
        <ele>182</ele>
        <time>2023-01-08T19:41:32Z</time>
      </trkpt>
      <trkpt lat="49.17204" lon="2.00193">
        <ele>181</ele>
        <time>2023-01-08T19:41:42Z</time>
      </trkpt>
      <trkpt lat="49.17217" lon="2.00171">
        <ele>181</ele>
        <time>2023-01-08T19:42:08Z</time>
      </trkpt>
      <trkpt lat="49.1723" lon="2.00168">
        <ele>182</ele>
        <time>2023-01-08T19:42:25Z</time>
      </trkpt>
      <trkpt lat="49.17256" lon="2.00152">
        <ele>184</ele>
        <time>2023-01-08T19:43:03Z</time>
      </trkpt>
      <trkpt lat="49.17277" lon="2.00152">
        <ele>187</ele>
        <time>2023-01-08T19:43:31Z</time>
      </trkpt>
      <trkpt lat="49.17321" lon="2.00122">
        <ele>191</ele>
        <time>2023-01-08T19:44:35Z</time>
      </trkpt>
      <trkpt lat="49.17326" lon="2.00109">
        <ele>192</ele>
        <time>2023-01-08T19:44:48Z</time>
      </trkpt>
      <trkpt lat="49.17359" lon="2.00071">
        <ele>195</ele>
        <time>2023-01-08T19:45:43Z</time>
      </trkpt>
      <trkpt lat="49.17388" lon="2.00018">
        <ele>197</ele>
        <time>2023-01-08T19:46:43Z</time>
      </trkpt>
      <trkpt lat="49.17402" lon="2.00005">
        <ele>198</ele>
        <time>2023-01-08T19:47:05Z</time>
      </trkpt>
      <trkpt lat="49.17424" lon="1.99959">
        <ele>197</ele>
        <time>2023-01-08T19:47:55Z</time>
      </trkpt>
      <trkpt lat="49.17455" lon="1.99925">
        <ele>197</ele>
        <time>2023-01-08T19:48:46Z</time>
      </trkpt>
      <trkpt lat="49.17473" lon="1.99895">
        <ele>195</ele>
        <time>2023-01-08T19:49:21Z</time>
      </trkpt>
      <trkpt lat="49.17489" lon="1.99891">
        <ele>196</ele>
        <time>2023-01-08T19:49:43Z</time>
      </trkpt>
      <trkpt lat="49.17514" lon="1.99897">
        <ele>196</ele>
        <time>2023-01-08T19:50:17Z</time>
      </trkpt>
      <trkpt lat="49.17546" lon="1.99928">
        <ele>196</ele>
        <time>2023-01-08T19:51:07Z</time>
      </trkpt>
      <trkpt lat="49.17629" lon="1.99916">
        <ele>188</ele>
        <time>2023-01-08T19:52:59Z</time>
      </trkpt>
      <trkpt lat="49.17679" lon="1.99899">
        <ele>182</ele>
        <time>2023-01-08T19:54:07Z</time>
      </trkpt>
      <trkpt lat="49.17689" lon="1.99899">
        <ele>182</ele>
        <time>2023-01-08T19:54:20Z</time>
      </trkpt>
      <trkpt lat="49.17698" lon="1.99904">
        <ele>182</ele>
        <time>2023-01-08T19:54:33Z</time>
      </trkpt>
      <trkpt lat="49.17719" lon="1.99951">
        <ele>181</ele>
        <time>2023-01-08T19:55:23Z</time>
      </trkpt>
      <trkpt lat="49.17718" lon="2.00028">
        <ele>180</ele>
        <time>2023-01-08T19:56:30Z</time>
      </trkpt>
      <trkpt lat="49.17708" lon="2.00085">
        <ele>179</ele>
        <time>2023-01-08T19:57:21Z</time>
      </trkpt>
      <trkpt lat="49.1771" lon="2.00111">
        <ele>180</ele>
        <time>2023-01-08T19:57:44Z</time>
      </trkpt>
      <trkpt lat="49.17713" lon="2.0012">
        <ele>181</ele>
        <time>2023-01-08T19:57:53Z</time>
      </trkpt>
      <trkpt lat="49.17724" lon="2.0013">
        <ele>180</ele>
        <time>2023-01-08T19:58:10Z</time>
      </trkpt>
      <trkpt lat="49.17732" lon="2.00131">
        <ele>179</ele>
        <time>2023-01-08T19:58:21Z</time>
      </trkpt>
      <trkpt lat="49.17752" lon="2.00123">
        <ele>176</ele>
        <time>2023-01-08T19:58:48Z</time>
      </trkpt>
      <trkpt lat="49.17767" lon="2.00102">
        <ele>173</ele>
        <time>2023-01-08T19:59:16Z</time>
      </trkpt>
      <trkpt lat="49.17782" lon="1.99985">
        <ele>174</ele>
        <time>2023-01-08T20:01:00Z</time>
      </trkpt>
      <trkpt lat="49.17796" lon="1.99961">
        <ele>173</ele>
        <time>2023-01-08T20:01:28Z</time>
      </trkpt>
      <trkpt lat="49.17829" lon="1.99937">
        <ele>169</ele>
        <time>2023-01-08T20:02:16Z</time>
      </trkpt>
      <trkpt lat="49.1784" lon="1.99917">
        <ele>168</ele>
        <time>2023-01-08T20:02:39Z</time>
      </trkpt>
      <trkpt lat="49.17963" lon="1.99807">
        <ele>145</ele>
        <time>2023-01-08T20:05:49Z</time>
      </trkpt>
      <trkpt lat="49.18015" lon="1.99731">
        <ele>139</ele>
        <time>2023-01-08T20:07:25Z</time>
      </trkpt>
      <trkpt lat="49.1807" lon="1.99672">
        <ele>136</ele>
        <time>2023-01-08T20:08:55Z</time>
      </trkpt>
      <trkpt lat="49.18137" lon="1.99615">
        <ele>132</ele>
        <time>2023-01-08T20:10:37Z</time>
      </trkpt>
      <trkpt lat="49.18164" lon="1.99597">
        <ele>130</ele>
        <time>2023-01-08T20:11:17Z</time>
      </trkpt>
      <trkpt lat="49.18187" lon="1.9957">
        <ele>128</ele>
        <time>2023-01-08T20:11:55Z</time>
      </trkpt>
      <trkpt lat="49.18202" lon="1.9956">
        <ele>127</ele>
        <time>2023-01-08T20:12:17Z</time>
      </trkpt>
      <trkpt lat="49.18252" lon="1.99512">
        <ele>124</ele>
        <time>2023-01-08T20:13:36Z</time>
      </trkpt>
      <trkpt lat="49.18284" lon="1.99467">
        <ele>123</ele>
        <time>2023-01-08T20:14:34Z</time>
      </trkpt>
      <trkpt lat="49.18334" lon="1.99424">
        <ele>120</ele>
        <time>2023-01-08T20:15:50Z</time>
      </trkpt>
      <trkpt lat="49.18357" lon="1.99399">
        <ele>119</ele>
        <time>2023-01-08T20:16:28Z</time>
      </trkpt>
      <trkpt lat="49.1836" lon="1.99401">
        <ele>119</ele>
        <time>2023-01-08T20:16:32Z</time>
      </trkpt>
      <trkpt lat="49.1839" lon="1.99359">
        <ele>118</ele>
        <time>2023-01-08T20:17:27Z</time>
      </trkpt>
      <trkpt lat="49.18409" lon="1.99324">
        <ele>118</ele>
        <time>2023-01-08T20:18:06Z</time>
      </trkpt>
      <trkpt lat="49.18462" lon="1.99266">
        <ele>124</ele>
        <time>2023-01-08T20:19:33Z</time>
      </trkpt>
      <trkpt lat="49.18487" lon="1.99247">
        <ele>128</ele>
        <time>2023-01-08T20:20:11Z</time>
      </trkpt>
      <trkpt lat="49.18514" lon="1.9925">
        <ele>130</ele>
        <time>2023-01-08T20:20:47Z</time>
      </trkpt>
      <trkpt lat="49.18546" lon="1.99287">
        <ele>132</ele>
        <time>2023-01-08T20:21:40Z</time>
      </trkpt>
      <trkpt lat="49.18568" lon="1.99299">
        <ele>134</ele>
        <time>2023-01-08T20:22:11Z</time>
      </trkpt>
      <trkpt lat="49.18624" lon="1.99296">
        <ele>137</ele>
        <time>2023-01-08T20:23:26Z</time>
      </trkpt>
      <trkpt lat="49.18644" lon="1.99313">
        <ele>138</ele>
        <time>2023-01-08T20:23:57Z</time>
      </trkpt>
      <trkpt lat="49.1868" lon="1.99319">
        <ele>140</ele>
        <time>2023-01-08T20:24:45Z</time>
      </trkpt>
      <trkpt lat="49.18703" lon="1.9935">
        <ele>140</ele>
        <time>2023-01-08T20:25:26Z</time>
      </trkpt>
      <trkpt lat="49.18724" lon="1.99363">
        <ele>140</ele>
        <time>2023-01-08T20:25:56Z</time>
      </trkpt>
      <trkpt lat="49.18755" lon="1.99376">
        <ele>140</ele>
        <time>2023-01-08T20:26:39Z</time>
      </trkpt>
      <trkpt lat="49.18804" lon="1.99379">
        <ele>141</ele>
        <time>2023-01-08T20:27:45Z</time>
      </trkpt>
      <trkpt lat="49.18828" lon="1.99359">
        <ele>142</ele>
        <time>2023-01-08T20:28:21Z</time>
      </trkpt>
      <trkpt lat="49.18839" lon="1.99334">
        <ele>143</ele>
        <time>2023-01-08T20:28:47Z</time>
      </trkpt>
      <trkpt lat="49.18865" lon="1.99303">
        <ele>142</ele>
        <time>2023-01-08T20:29:31Z</time>
      </trkpt>
      <trkpt lat="49.18894" lon="1.99248">
        <ele>140</ele>
        <time>2023-01-08T20:30:33Z</time>
      </trkpt>
      <trkpt lat="49.18921" lon="1.99143">
        <ele>137</ele>
        <time>2023-01-08T20:32:11Z</time>
      </trkpt>
      <trkpt lat="49.1893" lon="1.99122">
        <ele>137</ele>
        <time>2023-01-08T20:32:33Z</time>
      </trkpt>
      <trkpt lat="49.18952" lon="1.99091">
        <ele>137</ele>
        <time>2023-01-08T20:33:13Z</time>
      </trkpt>
      <trkpt lat="49.18987" lon="1.99054">
        <ele>137</ele>
        <time>2023-01-08T20:34:10Z</time>
      </trkpt>
      <trkpt lat="49.19056" lon="1.9901">
        <ele>136</ele>
        <time>2023-01-08T20:35:50Z</time>
      </trkpt>
      <trkpt lat="49.19069" lon="1.99006">
        <ele>136</ele>
        <time>2023-01-08T20:36:07Z</time>
      </trkpt>
      <trkpt lat="49.19086" lon="1.99008">
        <ele>136</ele>
        <time>2023-01-08T20:36:30Z</time>
      </trkpt>
      <trkpt lat="49.19139" lon="1.99063">
        <ele>134</ele>
        <time>2023-01-08T20:37:56Z</time>
      </trkpt>
      <trkpt lat="49.19223" lon="1.99113">
        <ele>139</ele>
        <time>2023-01-08T20:39:56Z</time>
      </trkpt>
      <trkpt lat="49.19241" lon="1.99117">
        <ele>140</ele>
        <time>2023-01-08T20:40:20Z</time>
      </trkpt>
      <trkpt lat="49.19273" lon="1.99117">
        <ele>143</ele>
        <time>2023-01-08T20:41:03Z</time>
      </trkpt>
      <trkpt lat="49.19282" lon="1.99122">
        <ele>143</ele>
        <time>2023-01-08T20:41:16Z</time>
      </trkpt>
      <trkpt lat="49.19326" lon="1.99118">
        <ele>147</ele>
        <time>2023-01-08T20:42:14Z</time>
      </trkpt>
      <trkpt lat="49.19339" lon="1.99113">
        <ele>147</ele>
        <time>2023-01-08T20:42:32Z</time>
      </trkpt>
      <trkpt lat="49.19345" lon="1.99115">
        <ele>147</ele>
        <time>2023-01-08T20:42:41Z</time>
      </trkpt>
      <trkpt lat="49.19367" lon="1.99184">
        <ele>149</ele>
        <time>2023-01-08T20:43:47Z</time>
      </trkpt>
      <trkpt lat="49.19366" lon="1.99222">
        <ele>151</ele>
        <time>2023-01-08T20:44:21Z</time>
      </trkpt>
      <trkpt lat="49.19372" lon="1.99269">
        <ele>153</ele>
        <time>2023-01-08T20:45:02Z</time>
      </trkpt>
      <trkpt lat="49.19384" lon="1.99308">
        <ele>154</ele>
        <time>2023-01-08T20:45:40Z</time>
      </trkpt>
      <trkpt lat="49.19387" lon="1.99337">
        <ele>155</ele>
        <time>2023-01-08T20:46:06Z</time>
      </trkpt>
      <trkpt lat="49.19396" lon="1.99352">
        <ele>156</ele>
        <time>2023-01-08T20:46:23Z</time>
      </trkpt>
      <trkpt lat="49.19396" lon="1.99382">
        <ele>158</ele>
        <time>2023-01-08T20:46:50Z</time>
      </trkpt>
      <trkpt lat="49.1939" lon="1.99416">
        <ele>160</ele>
        <time>2023-01-08T20:47:20Z</time>
      </trkpt>
      <trkpt lat="49.19397" lon="1.99433">
        <ele>161</ele>
        <time>2023-01-08T20:47:38Z</time>
      </trkpt>
      <trkpt lat="49.19398" lon="1.99451">
        <ele>162</ele>
        <time>2023-01-08T20:47:53Z</time>
      </trkpt>
      <trkpt lat="49.19397" lon="1.99474">
        <ele>163</ele>
        <time>2023-01-08T20:48:14Z</time>
      </trkpt>
      <trkpt lat="49.19388" lon="1.995">
        <ele>165</ele>
        <time>2023-01-08T20:48:39Z</time>
      </trkpt>
      <trkpt lat="49.19386" lon="1.99524">
        <ele>166</ele>
        <time>2023-01-08T20:49:00Z</time>
      </trkpt>
      <trkpt lat="49.19376" lon="1.99542">
        <ele>167</ele>
        <time>2023-01-08T20:49:21Z</time>
      </trkpt>
      <trkpt lat="49.19373" lon="1.99568">
        <ele>168</ele>
        <time>2023-01-08T20:49:44Z</time>
      </trkpt>
      <trkpt lat="49.19358" lon="1.99612">
        <ele>169</ele>
        <time>2023-01-08T20:50:27Z</time>
      </trkpt>
      <trkpt lat="49.19354" lon="1.99637">
        <ele>171</ele>
        <time>2023-01-08T20:50:50Z</time>
      </trkpt>
      <trkpt lat="49.19361" lon="1.99659">
        <ele>173</ele>
        <time>2023-01-08T20:51:11Z</time>
      </trkpt>
      <trkpt lat="49.19352" lon="1.99709">
        <ele>175</ele>
        <time>2023-01-08T20:51:56Z</time>
      </trkpt>
      <trkpt lat="49.19352" lon="1.99737">
        <ele>177</ele>
        <time>2023-01-08T20:52:21Z</time>
      </trkpt>
      <trkpt lat="49.19363" lon="1.99786">
        <ele>180</ele>
        <time>2023-01-08T20:53:06Z</time>
      </trkpt>
      <trkpt lat="49.19382" lon="1.99835">
        <ele>183</ele>
        <time>2023-01-08T20:53:56Z</time>
      </trkpt>
      <trkpt lat="49.19381" lon="1.9986">
        <ele>185</ele>
        <time>2023-01-08T20:54:17Z</time>
      </trkpt>
      <trkpt lat="49.19332" lon="1.99943">
        <ele>195</ele>
        <time>2023-01-08T20:55:55Z</time>
      </trkpt>
      <trkpt lat="49.19327" lon="1.99979">
        <ele>200</ele>
        <time>2023-01-08T20:56:27Z</time>
      </trkpt>
      <trkpt lat="49.19321" lon="1.99995">
        <ele>201</ele>
        <time>2023-01-08T20:56:43Z</time>
      </trkpt>
      <trkpt lat="49.1932" lon="2.00034">
        <ele>203</ele>
        <time>2023-01-08T20:57:17Z</time>
      </trkpt>
      <trkpt lat="49.19309" lon="2.00071">
        <ele>202</ele>
        <time>2023-01-08T20:57:53Z</time>
      </trkpt>
      <trkpt lat="49.19308" lon="2.00106">
        <ele>202</ele>
        <time>2023-01-08T20:58:23Z</time>
      </trkpt>
      <trkpt lat="49.19317" lon="2.00125">
        <ele>203</ele>
        <time>2023-01-08T20:58:44Z</time>
      </trkpt>
      <trkpt lat="49.19352" lon="2.00151">
        <ele>206</ele>
        <time>2023-01-08T20:59:36Z</time>
      </trkpt>
      <trkpt lat="49.19375" lon="2.00175">
        <ele>208</ele>
        <time>2023-01-08T21:00:13Z</time>
      </trkpt>
      <trkpt lat="49.19385" lon="2.00189">
        <ele>208</ele>
        <time>2023-01-08T21:00:31Z</time>
      </trkpt>
      <trkpt lat="49.19392" lon="2.00211">
        <ele>208</ele>
        <time>2023-01-08T21:00:52Z</time>
      </trkpt>
      <trkpt lat="49.19415" lon="2.00231">
        <ele>210</ele>
        <time>2023-01-08T21:01:27Z</time>
      </trkpt>
      <trkpt lat="49.19435" lon="2.00267">
        <ele>210</ele>
        <time>2023-01-08T21:02:09Z</time>
      </trkpt>
      <trkpt lat="49.19457" lon="2.00292">
        <ele>211</ele>
        <time>2023-01-08T21:02:45Z</time>
      </trkpt>
      <trkpt lat="49.19469" lon="2.00322">
        <ele>210</ele>
        <time>2023-01-08T21:03:16Z</time>
      </trkpt>
      <trkpt lat="49.19474" lon="2.00366">
        <ele>211</ele>
        <time>2023-01-08T21:03:55Z</time>
      </trkpt>
      <trkpt lat="49.19484" lon="2.00404">
        <ele>212</ele>
        <time>2023-01-08T21:04:31Z</time>
      </trkpt>
      <trkpt lat="49.19499" lon="2.00437">
        <ele>213</ele>
        <time>2023-01-08T21:05:06Z</time>
      </trkpt>
      <trkpt lat="49.19505" lon="2.00489">
        <ele>212</ele>
        <time>2023-01-08T21:05:52Z</time>
      </trkpt>
      <trkpt lat="49.19515" lon="2.00494">
        <ele>212</ele>
        <time>2023-01-08T21:06:06Z</time>
      </trkpt>
      <trkpt lat="49.19517" lon="2.00506">
        <ele>211</ele>
        <time>2023-01-08T21:06:16Z</time>
      </trkpt>
      <trkpt lat="49.1955" lon="2.00512">
        <ele>210</ele>
        <time>2023-01-08T21:07:01Z</time>
      </trkpt>
      <trkpt lat="49.19563" lon="2.00528">
        <ele>208</ele>
        <time>2023-01-08T21:07:23Z</time>
      </trkpt>
      <trkpt lat="49.19613" lon="2.00555">
        <ele>203</ele>
        <time>2023-01-08T21:08:34Z</time>
      </trkpt>
      <trkpt lat="49.19642" lon="2.00586">
        <ele>198</ele>
        <time>2023-01-08T21:09:21Z</time>
      </trkpt>
      <trkpt lat="49.19662" lon="2.00627">
        <ele>195</ele>
        <time>2023-01-08T21:10:06Z</time>
      </trkpt>
      <trkpt lat="49.19677" lon="2.0064">
        <ele>194</ele>
        <time>2023-01-08T21:10:29Z</time>
      </trkpt>
      <trkpt lat="49.19689" lon="2.00665">
        <ele>191</ele>
        <time>2023-01-08T21:10:56Z</time>
      </trkpt>
      <trkpt lat="49.19708" lon="2.00681">
        <ele>189</ele>
        <time>2023-01-08T21:11:25Z</time>
      </trkpt>
      <trkpt lat="49.19746" lon="2.00702">
        <ele>184</ele>
        <time>2023-01-08T21:12:19Z</time>
      </trkpt>
      <trkpt lat="49.19787" lon="2.00701">
        <ele>183</ele>
        <time>2023-01-08T21:13:13Z</time>
      </trkpt>
      <trkpt lat="49.19817" lon="2.00691">
        <ele>183</ele>
        <time>2023-01-08T21:13:54Z</time>
      </trkpt>
      <trkpt lat="49.19839" lon="2.00706">
        <ele>182</ele>
        <time>2023-01-08T21:14:26Z</time>
      </trkpt>
      <trkpt lat="49.19859" lon="2.0073">
        <ele>179</ele>
        <time>2023-01-08T21:15:00Z</time>
      </trkpt>
      <trkpt lat="49.19864" lon="2.00742">
        <ele>178</ele>
        <time>2023-01-08T21:15:13Z</time>
      </trkpt>
      <trkpt lat="49.19877" lon="2.00754">
        <ele>177</ele>
        <time>2023-01-08T21:15:33Z</time>
      </trkpt>
      <trkpt lat="49.19889" lon="2.0079">
        <ele>172</ele>
        <time>2023-01-08T21:16:08Z</time>
      </trkpt>
      <trkpt lat="49.19898" lon="2.00803">
        <ele>170</ele>
        <time>2023-01-08T21:16:25Z</time>
      </trkpt>
      <trkpt lat="49.19935" lon="2.00827">
        <ele>165</ele>
        <time>2023-01-08T21:17:18Z</time>
      </trkpt>
      <trkpt lat="49.19953" lon="2.00849">
        <ele>162</ele>
        <time>2023-01-08T21:17:49Z</time>
      </trkpt>
      <trkpt lat="49.19993" lon="2.00862">
        <ele>159</ele>
        <time>2023-01-08T21:18:44Z</time>
      </trkpt>
      <trkpt lat="49.20028" lon="2.00893">
        <ele>157</ele>
        <time>2023-01-08T21:19:38Z</time>
      </trkpt>
      <trkpt lat="49.20062" lon="2.00934">
        <ele>155</ele>
        <time>2023-01-08T21:20:35Z</time>
      </trkpt>
      <trkpt lat="49.20067" lon="2.00962">
        <ele>154</ele>
        <time>2023-01-08T21:21:01Z</time>
      </trkpt>
      <trkpt lat="49.20051" lon="2.01038">
        <ele>151</ele>
        <time>2023-01-08T21:22:10Z</time>
      </trkpt>
      <trkpt lat="49.20042" lon="2.01056">
        <ele>150</ele>
        <time>2023-01-08T21:22:30Z</time>
      </trkpt>
      <trkpt lat="49.20034" lon="2.01088">
        <ele>148</ele>
        <time>2023-01-08T21:23:00Z</time>
      </trkpt>
      <trkpt lat="49.20019" lon="2.01118">
        <ele>145</ele>
        <time>2023-01-08T21:23:33Z</time>
      </trkpt>
      <trkpt lat="49.2" lon="2.01194">
        <ele>139</ele>
        <time>2023-01-08T21:24:44Z</time>
      </trkpt>
      <trkpt lat="49.19994" lon="2.01202">
        <ele>140</ele>
        <time>2023-01-08T21:24:55Z</time>
      </trkpt>
      <trkpt lat="49.1999" lon="2.01197">
        <ele>140</ele>
        <time>2023-01-08T21:25:01Z</time>
      </trkpt>
      <trkpt lat="49.19986" lon="2.01172">
        <ele>141</ele>
        <time>2023-01-08T21:25:24Z</time>
      </trkpt>
      <trkpt lat="49.19996" lon="2.01229">
        <ele>139</ele>
        <time>2023-01-08T21:26:15Z</time>
      </trkpt>
      <trkpt lat="49.1999" lon="2.0124">
        <ele>139</ele>
        <time>2023-01-08T21:26:28Z</time>
      </trkpt>
      <trkpt lat="49.1995" lon="2.01258">
        <ele>142</ele>
        <time>2023-01-08T21:27:23Z</time>
      </trkpt>
      <trkpt lat="49.1994" lon="2.01256">
        <ele>143</ele>
        <time>2023-01-08T21:27:37Z</time>
      </trkpt>
      <trkpt lat="49.19931" lon="2.01245">
        <ele>145</ele>
        <time>2023-01-08T21:27:52Z</time>
      </trkpt>
      <trkpt lat="49.19898" lon="2.01229">
        <ele>148</ele>
        <time>2023-01-08T21:28:38Z</time>
      </trkpt>
      <trkpt lat="49.19865" lon="2.01227">
        <ele>152</ele>
        <time>2023-01-08T21:29:23Z</time>
      </trkpt>
      <trkpt lat="49.1985" lon="2.01233">
        <ele>153</ele>
        <time>2023-01-08T21:29:43Z</time>
      </trkpt>
      <trkpt lat="49.19824" lon="2.01234">
        <ele>157</ele>
        <time>2023-01-08T21:30:18Z</time>
      </trkpt>
      <trkpt lat="49.19808" lon="2.01227">
        <ele>159</ele>
        <time>2023-01-08T21:30:40Z</time>
      </trkpt>
      <trkpt lat="49.19769" lon="2.01222">
        <ele>165</ele>
        <time>2023-01-08T21:31:32Z</time>
      </trkpt>
      <trkpt lat="49.19745" lon="2.0121">
        <ele>169</ele>
        <time>2023-01-08T21:32:06Z</time>
      </trkpt>
      <trkpt lat="49.1973" lon="2.01221">
        <ele>171</ele>
        <time>2023-01-08T21:32:28Z</time>
      </trkpt>
      <trkpt lat="49.19718" lon="2.01214">
        <ele>173</ele>
        <time>2023-01-08T21:32:45Z</time>
      </trkpt>
      <trkpt lat="49.19701" lon="2.01195">
        <ele>176</ele>
        <time>2023-01-08T21:33:13Z</time>
      </trkpt>
      <trkpt lat="49.19689" lon="2.01192">
        <ele>177</ele>
        <time>2023-01-08T21:33:30Z</time>
      </trkpt>
      <trkpt lat="49.19674" lon="2.0117">
        <ele>180</ele>
        <time>2023-01-08T21:33:57Z</time>
      </trkpt>
      <trkpt lat="49.19668" lon="2.01167">
        <ele>181</ele>
        <time>2023-01-08T21:34:06Z</time>
      </trkpt>
      <trkpt lat="49.19626" lon="2.01168">
        <ele>185</ele>
        <time>2023-01-08T21:35:02Z</time>
      </trkpt>
      <trkpt lat="49.19609" lon="2.01163">
        <ele>187</ele>
        <time>2023-01-08T21:35:25Z</time>
      </trkpt>
      <trkpt lat="49.19588" lon="2.01163">
        <ele>189</ele>
        <time>2023-01-08T21:35:53Z</time>
      </trkpt>
      <trkpt lat="49.19559" lon="2.01153">
        <ele>194</ele>
        <time>2023-01-08T21:36:33Z</time>
      </trkpt>
      <trkpt lat="49.19544" lon="2.01136">
        <ele>196</ele>
        <time>2023-01-08T21:36:58Z</time>
      </trkpt>
      <trkpt lat="49.19527" lon="2.01101">
        <ele>200</ele>
        <time>2023-01-08T21:37:36Z</time>
      </trkpt>
      <trkpt lat="49.19498" lon="2.01079">
        <ele>205</ele>
        <time>2023-01-08T21:38:19Z</time>
      </trkpt>
      <trkpt lat="49.19495" lon="2.01068">
        <ele>206</ele>
        <time>2023-01-08T21:38:29Z</time>
      </trkpt>
      <trkpt lat="49.19496" lon="2.01031">
        <ele>207</ele>
        <time>2023-01-08T21:39:02Z</time>
      </trkpt>
      <trkpt lat="49.19477" lon="2.00986">
        <ele>208</ele>
        <time>2023-01-08T21:39:48Z</time>
      </trkpt>
      <trkpt lat="49.19445" lon="2.00881">
        <ele>207</ele>
        <time>2023-01-08T21:41:29Z</time>
      </trkpt>
      <trkpt lat="49.19427" lon="2.00852">
        <ele>208</ele>
        <time>2023-01-08T21:42:04Z</time>
      </trkpt>
      <trkpt lat="49.19419" lon="2.00831">
        <ele>208</ele>
        <time>2023-01-08T21:42:25Z</time>
      </trkpt>
      <trkpt lat="49.19413" lon="2.00795">
        <ele>205</ele>
        <time>2023-01-08T21:42:58Z</time>
      </trkpt>
      <trkpt lat="49.19407" lon="2.00784">
        <ele>204</ele>
        <time>2023-01-08T21:43:10Z</time>
      </trkpt>
      <trkpt lat="49.19401" lon="2.00786">
        <ele>203</ele>
        <time>2023-01-08T21:43:18Z</time>
      </trkpt>
      <trkpt lat="49.19386" lon="2.00818">
        <ele>203</ele>
        <time>2023-01-08T21:43:53Z</time>
      </trkpt>
      <trkpt lat="49.19367" lon="2.00844">
        <ele>202</ele>
        <time>2023-01-08T21:44:27Z</time>
      </trkpt>
      <trkpt lat="49.19362" lon="2.00876">
        <ele>205</ele>
        <time>2023-01-08T21:44:56Z</time>
      </trkpt>
      <trkpt lat="49.19352" lon="2.009">
        <ele>207</ele>
        <time>2023-01-08T21:45:20Z</time>
      </trkpt>
      <trkpt lat="49.19312" lon="2.00942">
        <ele>207</ele>
        <time>2023-01-08T21:46:25Z</time>
      </trkpt>
      <trkpt lat="49.19297" lon="2.00967">
        <ele>207</ele>
        <time>2023-01-08T21:46:55Z</time>
      </trkpt>
      <trkpt lat="49.19259" lon="2.01049">
        <ele>209</ele>
        <time>2023-01-08T21:48:22Z</time>
      </trkpt>
      <trkpt lat="49.19255" lon="2.01067">
        <ele>210</ele>
        <time>2023-01-08T21:48:39Z</time>
      </trkpt>
      <trkpt lat="49.1922" lon="2.01126">
        <ele>211</ele>
        <time>2023-01-08T21:49:48Z</time>
      </trkpt>
      <trkpt lat="49.19205" lon="2.01191">
        <ele>213</ele>
        <time>2023-01-08T21:50:49Z</time>
      </trkpt>
      <trkpt lat="49.19185" lon="2.01214">
        <ele>213</ele>
        <time>2023-01-08T21:51:22Z</time>
      </trkpt>
      <trkpt lat="49.19172" lon="2.0124">
        <ele>213</ele>
        <time>2023-01-08T21:51:50Z</time>
      </trkpt>
      <trkpt lat="49.19169" lon="2.01269">
        <ele>213</ele>
        <time>2023-01-08T21:52:16Z</time>
      </trkpt>
      <trkpt lat="49.19155" lon="2.01294">
        <ele>212</ele>
        <time>2023-01-08T21:52:45Z</time>
      </trkpt>
      <trkpt lat="49.19152" lon="2.01308">
        <ele>211</ele>
        <time>2023-01-08T21:52:58Z</time>
      </trkpt>
      <trkpt lat="49.19143" lon="2.01357">
        <ele>210</ele>
        <time>2023-01-08T21:53:42Z</time>
      </trkpt>
      <trkpt lat="49.19139" lon="2.01421">
        <ele>211</ele>
        <time>2023-01-08T21:54:38Z</time>
      </trkpt>
      <trkpt lat="49.19127" lon="2.0147">
        <ele>210</ele>
        <time>2023-01-08T21:55:24Z</time>
      </trkpt>
      <trkpt lat="49.19125" lon="2.01498">
        <ele>210</ele>
        <time>2023-01-08T21:55:48Z</time>
      </trkpt>
      <trkpt lat="49.19129" lon="2.01527">
        <ele>210</ele>
        <time>2023-01-08T21:56:14Z</time>
      </trkpt>
      <trkpt lat="49.19122" lon="2.01568">
        <ele>210</ele>
        <time>2023-01-08T21:56:51Z</time>
      </trkpt>
      <trkpt lat="49.1912" lon="2.01635">
        <ele>211</ele>
        <time>2023-01-08T21:57:50Z</time>
      </trkpt>
      <trkpt lat="49.19104" lon="2.01667">
        <ele>211</ele>
        <time>2023-01-08T21:58:25Z</time>
      </trkpt>
      <trkpt lat="49.19095" lon="2.01707">
        <ele>211</ele>
        <time>2023-01-08T21:59:02Z</time>
      </trkpt>
      <trkpt lat="49.19086" lon="2.01729">
        <ele>212</ele>
        <time>2023-01-08T21:59:24Z</time>
      </trkpt>
      <trkpt lat="49.19076" lon="2.01801">
        <ele>214</ele>
        <time>2023-01-08T22:00:28Z</time>
      </trkpt>
      <trkpt lat="49.19047" lon="2.019">
        <ele>215</ele>
        <time>2023-01-08T22:02:03Z</time>
      </trkpt>
      <trkpt lat="49.19037" lon="2.01928">
        <ele>215</ele>
        <time>2023-01-08T22:02:31Z</time>
      </trkpt>
      <trkpt lat="49.19025" lon="2.01948">
        <ele>214</ele>
        <time>2023-01-08T22:02:55Z</time>
      </trkpt>
      <trkpt lat="49.1901" lon="2.01999">
        <ele>214</ele>
        <time>2023-01-08T22:03:43Z</time>
      </trkpt>
      <trkpt lat="49.18983" lon="2.02062">
        <ele>213</ele>
        <time>2023-01-08T22:04:49Z</time>
      </trkpt>
      <trkpt lat="49.18975" lon="2.02092">
        <ele>213</ele>
        <time>2023-01-08T22:05:17Z</time>
      </trkpt>
      <trkpt lat="49.18955" lon="2.02125">
        <ele>214</ele>
        <time>2023-01-08T22:05:57Z</time>
      </trkpt>
      <trkpt lat="49.18931" lon="2.02135">
        <ele>214</ele>
        <time>2023-01-08T22:06:30Z</time>
      </trkpt>
      <trkpt lat="49.18917" lon="2.02136">
        <ele>214</ele>
        <time>2023-01-08T22:06:48Z</time>
      </trkpt>
      <trkpt lat="49.18897" lon="2.02147">
        <ele>212</ele>
        <time>2023-01-08T22:07:17Z</time>
      </trkpt>
      <trkpt lat="49.18888" lon="2.02169">
        <ele>213</ele>
        <time>2023-01-08T22:07:39Z</time>
      </trkpt>
      <trkpt lat="49.1884" lon="2.02204">
        <ele>212</ele>
        <time>2023-01-08T22:08:50Z</time>
      </trkpt>
      <trkpt lat="49.18832" lon="2.02216">
        <ele>212</ele>
        <time>2023-01-08T22:09:05Z</time>
      </trkpt>
      <trkpt lat="49.18826" lon="2.02215">
        <ele>212</ele>
        <time>2023-01-08T22:09:13Z</time>
      </trkpt>
      <trkpt lat="49.18795" lon="2.02227">
        <ele>214</ele>
        <time>2023-01-08T22:09:56Z</time>
      </trkpt>
      <trkpt lat="49.18789" lon="2.02234">
        <ele>214</ele>
        <time>2023-01-08T22:10:06Z</time>
      </trkpt>
      <trkpt lat="49.18774" lon="2.02237">
        <ele>215</ele>
        <time>2023-01-08T22:10:26Z</time>
      </trkpt>
      <trkpt lat="49.18754" lon="2.02251">
        <ele>216</ele>
        <time>2023-01-08T22:10:56Z</time>
      </trkpt>
      <trkpt lat="49.18723" lon="2.02241">
        <ele>215</ele>
        <time>2023-01-08T22:11:38Z</time>
      </trkpt>
      <trkpt lat="49.18715" lon="2.02244">
        <ele>216</ele>
        <time>2023-01-08T22:11:49Z</time>
      </trkpt>
      <trkpt lat="49.18702" lon="2.02241">
        <ele>215</ele>
        <time>2023-01-08T22:12:07Z</time>
      </trkpt>
      <trkpt lat="49.18677" lon="2.02227">
        <ele>215</ele>
        <time>2023-01-08T22:12:42Z</time>
      </trkpt>
      <trkpt lat="49.18608" lon="2.02226">
        <ele>216</ele>
        <time>2023-01-08T22:14:14Z</time>
      </trkpt>
      <trkpt lat="49.18587" lon="2.02221">
        <ele>216</ele>
        <time>2023-01-08T22:14:42Z</time>
      </trkpt>
      <trkpt lat="49.18543" lon="2.02191">
        <ele>216</ele>
        <time>2023-01-08T22:15:47Z</time>
      </trkpt>
      <trkpt lat="49.18516" lon="2.02186">
        <ele>216</ele>
        <time>2023-01-08T22:16:23Z</time>
      </trkpt>
      <trkpt lat="49.18509" lon="2.02193">
        <ele>217</ele>
        <time>2023-01-08T22:16:34Z</time>
      </trkpt>
      <trkpt lat="49.18511" lon="2.02183">
        <ele>216</ele>
        <time>2023-01-08T22:16:43Z</time>
      </trkpt>
      <trkpt lat="49.18491" lon="2.02187">
        <ele>217</ele>
        <time>2023-01-08T22:17:10Z</time>
      </trkpt>
      <trkpt lat="49.18472" lon="2.02184">
        <ele>217</ele>
        <time>2023-01-08T22:17:36Z</time>
      </trkpt>
      <trkpt lat="49.18428" lon="2.02165">
        <ele>218</ele>
        <time>2023-01-08T22:18:37Z</time>
      </trkpt>
      <trkpt lat="49.18402" lon="2.02134">
        <ele>218</ele>
        <time>2023-01-08T22:19:21Z</time>
      </trkpt>
      <trkpt lat="49.18388" lon="2.02109">
        <ele>218</ele>
        <time>2023-01-08T22:19:49Z</time>
      </trkpt>
      <trkpt lat="49.18371" lon="2.0209">
        <ele>219</ele>
        <time>2023-01-08T22:20:18Z</time>
      </trkpt>
      <trkpt lat="49.18288" lon="2.01967">
        <ele>220</ele>
        <time>2023-01-08T22:22:52Z</time>
      </trkpt>
      <trkpt lat="49.18277" lon="2.01948">
        <ele>221</ele>
        <time>2023-01-08T22:23:14Z</time>
      </trkpt>
      <trkpt lat="49.18263" lon="2.01906">
        <ele>221</ele>
        <time>2023-01-08T22:23:55Z</time>
      </trkpt>
      <trkpt lat="49.18236" lon="2.01875">
        <ele>221</ele>
        <time>2023-01-08T22:24:40Z</time>
      </trkpt>
      <trkpt lat="49.18219" lon="2.01836">
        <ele>220</ele>
        <time>2023-01-08T22:25:21Z</time>
      </trkpt>
      <trkpt lat="49.18204" lon="2.01823">
        <ele>220</ele>
        <time>2023-01-08T22:25:44Z</time>
      </trkpt>
      <trkpt lat="49.18195" lon="2.01803">
        <ele>220</ele>
        <time>2023-01-08T22:26:05Z</time>
      </trkpt>
      <trkpt lat="49.18154" lon="2.01748">
        <ele>219</ele>
        <time>2023-01-08T22:27:18Z</time>
      </trkpt>
      <trkpt lat="49.18106" lon="2.01668">
        <ele>219</ele>
        <time>2023-01-08T22:28:53Z</time>
      </trkpt>
      <trkpt lat="49.18077" lon="2.01637">
        <ele>219</ele>
        <time>2023-01-08T22:29:40Z</time>
      </trkpt>
      <trkpt lat="49.18039" lon="2.01616">
        <ele>219</ele>
        <time>2023-01-08T22:30:34Z</time>
      </trkpt>
      <trkpt lat="49.18031" lon="2.01606">
        <ele>219</ele>
        <time>2023-01-08T22:30:48Z</time>
      </trkpt>
      <trkpt lat="49.17996" lon="2.01582">
        <ele>220</ele>
        <time>2023-01-08T22:31:39Z</time>
      </trkpt>
      <trkpt lat="49.17943" lon="2.01557">
        <ele>219</ele>
        <time>2023-01-08T22:32:53Z</time>
      </trkpt>
      <trkpt lat="49.17924" lon="2.01525">
        <ele>218</ele>
        <time>2023-01-08T22:33:30Z</time>
      </trkpt>
      <trkpt lat="49.17918" lon="2.01484">
        <ele>217</ele>
        <time>2023-01-08T22:34:07Z</time>
      </trkpt>
      <trkpt lat="49.17911" lon="2.01469">
        <ele>217</ele>
        <time>2023-01-08T22:34:23Z</time>
      </trkpt>
      <trkpt lat="49.17903" lon="2.01469">
        <ele>217</ele>
        <time>2023-01-08T22:34:34Z</time>
      </trkpt>
      <trkpt lat="49.17892" lon="2.01476">
        <ele>216</ele>
        <time>2023-01-08T22:34:50Z</time>
      </trkpt>
      <trkpt lat="49.17857" lon="2.01543">
        <ele>212</ele>
        <time>2023-01-08T22:36:05Z</time>
      </trkpt>
      <trkpt lat="49.17854" lon="2.01542">
        <ele>212</ele>
        <time>2023-01-08T22:36:09Z</time>
      </trkpt>
      <trkpt lat="49.17849" lon="2.0153">
        <ele>211</ele>
        <time>2023-01-08T22:36:21Z</time>
      </trkpt>
      <trkpt lat="49.17844" lon="2.01482">
        <ele>212</ele>
        <time>2023-01-08T22:37:03Z</time>
      </trkpt>
      <trkpt lat="49.17835" lon="2.01446">
        <ele>212</ele>
        <time>2023-01-08T22:37:37Z</time>
      </trkpt>
      <trkpt lat="49.17819" lon="2.01399">
        <ele>211</ele>
        <time>2023-01-08T22:38:23Z</time>
      </trkpt>
      <trkpt lat="49.17808" lon="2.01381">
        <ele>210</ele>
        <time>2023-01-08T22:38:45Z</time>
      </trkpt>
      <trkpt lat="49.17793" lon="2.01331">
        <ele>211</ele>
        <time>2023-01-08T22:39:33Z</time>
      </trkpt>
      <trkpt lat="49.17787" lon="2.01294">
        <ele>212</ele>
        <time>2023-01-08T22:40:06Z</time>
      </trkpt>
      <trkpt lat="49.17773" lon="2.01256">
        <ele>211</ele>
        <time>2023-01-08T22:40:44Z</time>
      </trkpt>
      <trkpt lat="49.17768" lon="2.01214">
        <ele>213</ele>
        <time>2023-01-08T22:41:21Z</time>
      </trkpt>
      <trkpt lat="49.17732" lon="2.01109">
        <ele>211</ele>
        <time>2023-01-08T22:43:05Z</time>
      </trkpt>
      <trkpt lat="49.17727" lon="2.01062">
        <ele>211</ele>
        <time>2023-01-08T22:43:46Z</time>
      </trkpt>
      <trkpt lat="49.17733" lon="2.0104">
        <ele>213</ele>
        <time>2023-01-08T22:44:07Z</time>
      </trkpt>
      <trkpt lat="49.1775" lon="2.01012">
        <ele>216</ele>
        <time>2023-01-08T22:44:40Z</time>
      </trkpt>
      <trkpt lat="49.17754" lon="2.00993">
        <ele>216</ele>
        <time>2023-01-08T22:44:58Z</time>
      </trkpt>
      <trkpt lat="49.17747" lon="2.00897">
        <ele>215</ele>
        <time>2023-01-08T22:46:22Z</time>
      </trkpt>
      <trkpt lat="49.17737" lon="2.0086">
        <ele>216</ele>
        <time>2023-01-08T22:46:57Z</time>
      </trkpt>
      <trkpt lat="49.17737" lon="2.00846">
        <ele>216</ele>
        <time>2023-01-08T22:47:09Z</time>
      </trkpt>
      <trkpt lat="49.17695" lon="2.00787">
        <ele>218</ele>
        <time>2023-01-08T22:48:25Z</time>
      </trkpt>
      <trkpt lat="49.17668" lon="2.00756">
        <ele>220</ele>
        <time>2023-01-08T22:49:10Z</time>
      </trkpt>
      <trkpt lat="49.17645" lon="2.00741">
        <ele>220</ele>
        <time>2023-01-08T22:49:44Z</time>
      </trkpt>
      <trkpt lat="49.17616" lon="2.0073">
        <ele>220</ele>
        <time>2023-01-08T22:50:24Z</time>
      </trkpt>
      <trkpt lat="49.17559" lon="2.00695">
        <ele>219</ele>
        <time>2023-01-08T22:51:46Z</time>
      </trkpt>
      <trkpt lat="49.17543" lon="2.00666">
        <ele>219</ele>
        <time>2023-01-08T22:52:19Z</time>
      </trkpt>
      <trkpt lat="49.17521" lon="2.00648">
        <ele>218</ele>
        <time>2023-01-08T22:52:52Z</time>
      </trkpt>
      <trkpt lat="49.17491" lon="2.00637">
        <ele>217</ele>
        <time>2023-01-08T22:53:33Z</time>
      </trkpt>
      <trkpt lat="49.17443" lon="2.00601">
        <ele>213</ele>
        <time>2023-01-08T22:54:45Z</time>
      </trkpt>
      <trkpt lat="49.1741" lon="2.00614">
        <ele>209</ele>
        <time>2023-01-08T22:55:30Z</time>
      </trkpt>
      <trkpt lat="49.17399" lon="2.00612">
        <ele>208</ele>
        <time>2023-01-08T22:55:45Z</time>
      </trkpt>
      <trkpt lat="49.17368" lon="2.00582">
        <ele>205</ele>
        <time>2023-01-08T22:56:34Z</time>
      </trkpt>
      <trkpt lat="49.17351" lon="2.0054">
        <ele>204</ele>
        <time>2023-01-08T22:57:17Z</time>
      </trkpt>
      <trkpt lat="49.17314" lon="2.00499">
        <ele>199</ele>
        <time>2023-01-08T22:58:18Z</time>
      </trkpt>
      <trkpt lat="49.17295" lon="2.00468">
        <ele>197</ele>
        <time>2023-01-08T22:58:55Z</time>
      </trkpt>
      <trkpt lat="49.17287" lon="2.00388">
        <ele>196</ele>
        <time>2023-01-08T23:00:06Z</time>
      </trkpt>
      <trkpt lat="49.17277" lon="2.00354">
        <ele>194</ele>
        <time>2023-01-08T23:00:38Z</time>
      </trkpt>
      <trkpt lat="49.17269" lon="2.00295">
        <ele>191</ele>
        <time>2023-01-08T23:01:31Z</time>
      </trkpt>
      <trkpt lat="49.17258" lon="2.00258">
        <ele>188</ele>
        <time>2023-01-08T23:02:06Z</time>
      </trkpt>
      <trkpt lat="49.17233" lon="2.0022">
        <ele>185</ele>
        <time>2023-01-08T23:02:53Z</time>
      </trkpt>
      <trkpt lat="49.17203" lon="2.00191">
        <ele>181</ele>
        <time>2023-01-08T23:03:40Z</time>
      </trkpt>
      <trkpt lat="49.17191" lon="2.00193">
        <ele>180</ele>
        <time>2023-01-08T23:03:57Z</time>
      </trkpt>
      <trkpt lat="49.17185" lon="2.00205">
        <ele>180</ele>
        <time>2023-01-08T23:04:10Z</time>
      </trkpt>
      <trkpt lat="49.17191" lon="2.00192">
        <ele>180</ele>
        <time>2023-01-08T23:04:24Z</time>
      </trkpt>
      <trkpt lat="49.17189" lon="2.00185">
        <ele>180</ele>
        <time>2023-01-08T23:04:30Z</time>
      </trkpt>
      <trkpt lat="49.17178" lon="2.00206">
        <ele>180</ele>
        <time>2023-01-08T23:04:54Z</time>
      </trkpt>
      <trkpt lat="49.17172" lon="2.00209">
        <ele>179</ele>
        <time>2023-01-08T23:05:02Z</time>
      </trkpt>
      <trkpt lat="49.17164" lon="2.00222">
        <ele>179</ele>
        <time>2023-01-08T23:05:18Z</time>
      </trkpt>
      <trkpt lat="49.17152" lon="2.00228">
        <ele>178</ele>
        <time>2023-01-08T23:05:35Z</time>
      </trkpt>
      <trkpt lat="49.17113" lon="2.00292">
        <ele>174</ele>
        <time>2023-01-08T23:06:51Z</time>
      </trkpt>
      <trkpt lat="49.17051" lon="2.00354">
        <ele>168</ele>
        <time>2023-01-08T23:08:30Z</time>
      </trkpt>
      <trkpt lat="49.17038" lon="2.0036">
        <ele>167</ele>
        <time>2023-01-08T23:08:48Z</time>
      </trkpt>
      <trkpt lat="49.16997" lon="2.00399">
        <ele>161</ele>
        <time>2023-01-08T23:09:52Z</time>
      </trkpt>
      <trkpt lat="49.16977" lon="2.00426">
        <ele>157</ele>
        <time>2023-01-08T23:10:28Z</time>
      </trkpt>
      <trkpt lat="49.1695" lon="2.00451">
        <ele>153</ele>
        <time>2023-01-08T23:11:10Z</time>
      </trkpt>
      <trkpt lat="49.16892" lon="2.00468">
        <ele>149</ele>
        <time>2023-01-08T23:12:29Z</time>
      </trkpt>
      <trkpt lat="49.16829" lon="2.00516">
        <ele>144</ele>
        <time>2023-01-08T23:14:03Z</time>
      </trkpt>
      <trkpt lat="49.16794" lon="2.00553">
        <ele>142</ele>
        <time>2023-01-08T23:15:00Z</time>
      </trkpt>
      <trkpt lat="49.16775" lon="2.00561">
        <ele>142</ele>
        <time>2023-01-08T23:15:26Z</time>
      </trkpt>
      <trkpt lat="49.1674" lon="2.00587">
        <ele>140</ele>
        <time>2023-01-08T23:16:18Z</time>
      </trkpt>
      <trkpt lat="49.16715" lon="2.00592">
        <ele>139</ele>
        <time>2023-01-08T23:16:51Z</time>
      </trkpt>
      <trkpt lat="49.16703" lon="2.00599">
        <ele>139</ele>
        <time>2023-01-08T23:17:09Z</time>
      </trkpt>
      <trkpt lat="49.16672" lon="2.00602">
        <ele>137</ele>
        <time>2023-01-08T23:17:50Z</time>
      </trkpt>
      <trkpt lat="49.16638" lon="2.00587">
        <ele>136</ele>
        <time>2023-01-08T23:18:37Z</time>
      </trkpt>
      <trkpt lat="49.16606" lon="2.00567">
        <ele>135</ele>
        <time>2023-01-08T23:19:23Z</time>
      </trkpt>
      <trkpt lat="49.16594" lon="2.00554">
        <ele>134</ele>
        <time>2023-01-08T23:19:43Z</time>
      </trkpt>
      <trkpt lat="49.16566" lon="2.00542">
        <ele>134</ele>
        <time>2023-01-08T23:20:22Z</time>
      </trkpt>
      <trkpt lat="49.16482" lon="2.00566">
        <ele>133</ele>
        <time>2023-01-08T23:22:16Z</time>
      </trkpt>
      <trkpt lat="49.16464" lon="2.006">
        <ele>134</ele>
        <time>2023-01-08T23:22:54Z</time>
      </trkpt>
      <trkpt lat="49.16428" lon="2.00703">
        <ele>135</ele>
        <time>2023-01-08T23:24:36Z</time>
      </trkpt>
      <trkpt lat="49.16397" lon="2.00752">
        <ele>136</ele>
        <time>2023-01-08T23:25:35Z</time>
      </trkpt>
      <trkpt lat="49.16364" lon="2.00819">
        <ele>135</ele>
        <time>2023-01-08T23:26:49Z</time>
      </trkpt>
      <trkpt lat="49.16337" lon="2.00857">
        <ele>134</ele>
        <time>2023-01-08T23:27:38Z</time>
      </trkpt>
      <trkpt lat="49.16309" lon="2.00885">
        <ele>134</ele>
        <time>2023-01-08T23:28:22Z</time>
      </trkpt>
      <trkpt lat="49.16272" lon="2.00952">
        <ele>131</ele>
        <time>2023-01-08T23:29:39Z</time>
      </trkpt>
      <trkpt lat="49.16247" lon="2.00984">
        <ele>129</ele>
        <time>2023-01-08T23:30:22Z</time>
      </trkpt>
      <trkpt lat="49.16213" lon="2.01017">
        <ele>127</ele>
        <time>2023-01-08T23:31:16Z</time>
      </trkpt>
      <trkpt lat="49.16197" lon="2.01024">
        <ele>126</ele>
        <time>2023-01-08T23:31:38Z</time>
      </trkpt>
      <trkpt lat="49.16189" lon="2.01032">
        <ele>126</ele>
        <time>2023-01-08T23:31:51Z</time>
      </trkpt>
      <trkpt lat="49.16168" lon="2.01066">
        <ele>124</ele>
        <time>2023-01-08T23:32:32Z</time>
      </trkpt>
      <trkpt lat="49.16137" lon="2.01096">
        <ele>123</ele>
        <time>2023-01-08T23:33:21Z</time>
      </trkpt>
      <trkpt lat="49.16097" lon="2.01144">
        <ele>124</ele>
        <time>2023-01-08T23:34:29Z</time>
      </trkpt>
      <trkpt lat="49.16084" lon="2.01168">
        <ele>126</ele>
        <time>2023-01-08T23:34:56Z</time>
      </trkpt>
      <trkpt lat="49.16067" lon="2.0118">
        <ele>127</ele>
        <time>2023-01-08T23:35:21Z</time>
      </trkpt>
      <trkpt lat="49.16065" lon="2.01219">
        <ele>129</ele>
        <time>2023-01-08T23:35:55Z</time>
      </trkpt>
      <trkpt lat="49.16057" lon="2.01243">
        <ele>129</ele>
        <time>2023-01-08T23:36:18Z</time>
      </trkpt>
      <trkpt lat="49.16051" lon="2.01248">
        <ele>130</ele>
        <time>2023-01-08T23:36:28Z</time>
      </trkpt>
      <trkpt lat="49.16038" lon="2.01309">
        <ele>129</ele>
        <time>2023-01-08T23:37:24Z</time>
      </trkpt>
      <trkpt lat="49.15983" lon="2.0137">
        <ele>126</ele>
        <time>2023-01-08T23:38:54Z</time>
      </trkpt>
      <trkpt lat="49.15932" lon="2.01408">
        <ele>123</ele>
        <time>2023-01-08T23:40:10Z</time>
      </trkpt>
      <trkpt lat="49.15895" lon="2.01453">
        <ele>122</ele>
        <time>2023-01-08T23:41:13Z</time>
      </trkpt>
      <trkpt lat="49.15883" lon="2.0146">
        <ele>122</ele>
        <time>2023-01-08T23:41:30Z</time>
      </trkpt>
      <trkpt lat="49.15846" lon="2.01506">
        <ele>122</ele>
        <time>2023-01-08T23:42:34Z</time>
      </trkpt>
      <trkpt lat="49.15836" lon="2.01509">
        <ele>122</ele>
        <time>2023-01-08T23:42:47Z</time>
      </trkpt>
      <trkpt lat="49.15808" lon="2.01545">
        <ele>122</ele>
        <time>2023-01-08T23:43:36Z</time>
      </trkpt>
      <trkpt lat="49.15798" lon="2.01564">
        <ele>122</ele>
        <time>2023-01-08T23:43:57Z</time>
      </trkpt>
      <trkpt lat="49.15779" lon="2.01575">
        <ele>123</ele>
        <time>2023-01-08T23:44:25Z</time>
      </trkpt>
      <trkpt lat="49.15762" lon="2.01595">
        <ele>123</ele>
        <time>2023-01-08T23:44:53Z</time>
      </trkpt>
      <trkpt lat="49.15737" lon="2.01612">
        <ele>124</ele>
        <time>2023-01-08T23:45:30Z</time>
      </trkpt>
      <trkpt lat="49.15667" lon="2.01684">
        <ele>126</ele>
        <time>2023-01-08T23:47:22Z</time>
      </trkpt>
      <trkpt lat="49.15605" lon="2.01789">
        <ele>128</ele>
        <time>2023-01-08T23:49:26Z</time>
      </trkpt>
      <trkpt lat="49.15579" lon="2.01816">
        <ele>128</ele>
        <time>2023-01-08T23:50:08Z</time>
      </trkpt>
      <trkpt lat="49.15545" lon="2.01865">
        <ele>127</ele>
        <time>2023-01-08T23:51:10Z</time>
      </trkpt>
      <trkpt lat="49.15526" lon="2.01883">
        <ele>126</ele>
        <time>2023-01-08T23:51:40Z</time>
      </trkpt>
      <trkpt lat="49.1551" lon="2.01915">
        <ele>125</ele>
        <time>2023-01-08T23:52:15Z</time>
      </trkpt>
      <trkpt lat="49.15486" lon="2.01946">
        <ele>124</ele>
        <time>2023-01-08T23:52:57Z</time>
      </trkpt>
      <trkpt lat="49.15443" lon="2.02018">
        <ele>123</ele>
        <time>2023-01-08T23:54:22Z</time>
      </trkpt>
      <trkpt lat="49.15416" lon="2.02051">
        <ele>122</ele>
        <time>2023-01-08T23:55:08Z</time>
      </trkpt>
      <trkpt lat="49.15385" lon="2.02103">
        <ele>122</ele>
        <time>2023-01-08T23:56:10Z</time>
      </trkpt>
      <trkpt lat="49.15371" lon="2.02115">
        <ele>122</ele>
        <time>2023-01-08T23:56:31Z</time>
      </trkpt>
      <trkpt lat="49.15358" lon="2.0214">
        <ele>122</ele>
        <time>2023-01-08T23:56:59Z</time>
      </trkpt>
      <trkpt lat="49.15333" lon="2.02171">
        <ele>122</ele>
        <time>2023-01-08T23:57:42Z</time>
      </trkpt>
      <trkpt lat="49.1533" lon="2.02204">
        <ele>121</ele>
        <time>2023-01-08T23:58:11Z</time>
      </trkpt>
      <trkpt lat="49.15332" lon="2.02245">
        <ele>120</ele>
        <time>2023-01-08T23:58:47Z</time>
      </trkpt>
      <trkpt lat="49.15341" lon="2.0229">
        <ele>119</ele>
        <time>2023-01-08T23:59:28Z</time>
      </trkpt>
      <trkpt lat="49.15382" lon="2.02429">
        <ele>115</ele>
        <time>2023-01-09T00:01:41Z</time>
      </trkpt>
      <trkpt lat="49.15389" lon="2.02505">
        <ele>115</ele>
        <time>2023-01-09T00:02:48Z</time>
      </trkpt>
      <trkpt lat="49.1539" lon="2.02581">
        <ele>113</ele>
        <time>2023-01-09T00:03:54Z</time>
      </trkpt>
      <trkpt lat="49.15383" lon="2.02618">
        <ele>113</ele>
        <time>2023-01-09T00:04:28Z</time>
      </trkpt>
      <trkpt lat="49.15388" lon="2.02668">
        <ele>114</ele>
        <time>2023-01-09T00:05:12Z</time>
      </trkpt>
      <trkpt lat="49.15385" lon="2.02686">
        <ele>114</ele>
        <time>2023-01-09T00:05:28Z</time>
      </trkpt>
      <trkpt lat="49.15377" lon="2.02683">
        <ele>113</ele>
        <time>2023-01-09T00:05:39Z</time>
      </trkpt>
      <trkpt lat="49.15358" lon="2.02661">
        <ele>112</ele>
        <time>2023-01-09T00:06:11Z</time>
      </trkpt>
      <trkpt lat="49.15334" lon="2.02623">
        <ele>112</ele>
        <time>2023-01-09T00:06:57Z</time>
      </trkpt>
      <trkpt lat="49.15284" lon="2.02562">
        <ele>112</ele>
        <time>2023-01-09T00:08:23Z</time>
      </trkpt>
      <trkpt lat="49.15215" lon="2.02503">
        <ele>112</ele>
        <time>2023-01-09T00:10:08Z</time>
      </trkpt>
      <trkpt lat="49.15174" lon="2.02477">
        <ele>113</ele>
        <time>2023-01-09T00:11:07Z</time>
      </trkpt>
      <trkpt lat="49.15146" lon="2.02466">
        <ele>113</ele>
        <time>2023-01-09T00:11:46Z</time>
      </trkpt>
      <trkpt lat="49.15121" lon="2.02465">
        <ele>114</ele>
        <time>2023-01-09T00:12:19Z</time>
      </trkpt>
      <trkpt lat="49.15079" lon="2.02451">
        <ele>115</ele>
        <time>2023-01-09T00:13:17Z</time>
      </trkpt>
      <trkpt lat="49.15053" lon="2.02449">
        <ele>115</ele>
        <time>2023-01-09T00:13:51Z</time>
      </trkpt>
      <trkpt lat="49.15008" lon="2.02464">
        <ele>113</ele>
        <time>2023-01-09T00:14:53Z</time>
      </trkpt>
      <trkpt lat="49.14954" lon="2.02476">
        <ele>113</ele>
        <time>2023-01-09T00:16:06Z</time>
      </trkpt>
      <trkpt lat="49.14938" lon="2.02471">
        <ele>113</ele>
        <time>2023-01-09T00:16:27Z</time>
      </trkpt>
      <trkpt lat="49.14897" lon="2.02484">
        <ele>115</ele>
        <time>2023-01-09T00:17:23Z</time>
      </trkpt>
      <trkpt lat="49.1488" lon="2.02481">
        <ele>116</ele>
        <time>2023-01-09T00:17:46Z</time>
      </trkpt>
      <trkpt lat="49.1484" lon="2.02446">
        <ele>119</ele>
        <time>2023-01-09T00:18:48Z</time>
      </trkpt>
      <trkpt lat="49.14777" lon="2.02365">
        <ele>124</ele>
        <time>2023-01-09T00:20:37Z</time>
      </trkpt>
      <trkpt lat="49.14749" lon="2.02338">
        <ele>127</ele>
        <time>2023-01-09T00:21:22Z</time>
      </trkpt>
      <trkpt lat="49.14707" lon="2.02305">
        <ele>130</ele>
        <time>2023-01-09T00:22:25Z</time>
      </trkpt>
      <trkpt lat="49.14693" lon="2.02288">
        <ele>131</ele>
        <time>2023-01-09T00:22:48Z</time>
      </trkpt>
      <trkpt lat="49.14676" lon="2.02282">
        <ele>132</ele>
        <time>2023-01-09T00:23:12Z</time>
      </trkpt>
      <trkpt lat="49.14652" lon="2.02257">
        <ele>134</ele>
        <time>2023-01-09T00:23:51Z</time>
      </trkpt>
      <trkpt lat="49.14632" lon="2.02245">
        <ele>135</ele>
        <time>2023-01-09T00:24:19Z</time>
      </trkpt>
      <trkpt lat="49.14613" lon="2.02227">
        <ele>136</ele>
        <time>2023-01-09T00:24:49Z</time>
      </trkpt>
      <trkpt lat="49.14603" lon="2.0221">
        <ele>136</ele>
        <time>2023-01-09T00:25:09Z</time>
      </trkpt>
      <trkpt lat="49.14596" lon="2.02186">
        <ele>138</ele>
        <time>2023-01-09T00:25:32Z</time>
      </trkpt>
      <trkpt lat="49.14579" lon="2.02157">
        <ele>139</ele>
        <time>2023-01-09T00:26:06Z</time>
      </trkpt>
      <trkpt lat="49.14568" lon="2.02118">
        <ele>141</ele>
        <time>2023-01-09T00:26:43Z</time>
      </trkpt>
      <trkpt lat="49.14546" lon="2.02072">
        <ele>142</ele>
        <time>2023-01-09T00:27:33Z</time>
      </trkpt>
      <trkpt lat="49.1454" lon="2.02075">
        <ele>142</ele>
        <time>2023-01-09T00:27:41Z</time>
      </trkpt>
      <trkpt lat="49.14524" lon="2.02064">
        <ele>142</ele>
        <time>2023-01-09T00:28:05Z</time>
      </trkpt>
      <trkpt lat="49.14517" lon="2.02064">
        <ele>142</ele>
        <time>2023-01-09T00:28:14Z</time>
      </trkpt>
      <trkpt lat="49.14509" lon="2.02053">
        <ele>143</ele>
        <time>2023-01-09T00:28:28Z</time>
      </trkpt>
      <trkpt lat="49.14471" lon="2.02035">
        <ele>144</ele>
        <time>2023-01-09T00:29:21Z</time>
      </trkpt>
      <trkpt lat="49.1447" lon="2.02027">
        <ele>144</ele>
        <time>2023-01-09T00:29:28Z</time>
      </trkpt>
      <trkpt lat="49.14459" lon="2.0201">
        <ele>145</ele>
        <time>2023-01-09T00:29:49Z</time>
      </trkpt>
      <trkpt lat="49.14451" lon="2.02008">
        <ele>146</ele>
        <time>2023-01-09T00:30:00Z</time>
      </trkpt>
      <trkpt lat="49.14444" lon="2.01993">
        <ele>146</ele>
        <time>2023-01-09T00:30:16Z</time>
      </trkpt>
      <trkpt lat="49.14425" lon="2.0198">
        <ele>147</ele>
        <time>2023-01-09T00:30:44Z</time>
      </trkpt>
      <trkpt lat="49.14412" lon="2.01975">
        <ele>147</ele>
        <time>2023-01-09T00:31:02Z</time>
      </trkpt>
      <trkpt lat="49.14404" lon="2.01982">
        <ele>147</ele>
        <time>2023-01-09T00:31:14Z</time>
      </trkpt>
      <trkpt lat="49.14382" lon="2.02028">
        <ele>148</ele>
        <time>2023-01-09T00:32:04Z</time>
      </trkpt>
      <trkpt lat="49.14375" lon="2.0206">
        <ele>147</ele>
        <time>2023-01-09T00:32:33Z</time>
      </trkpt>
      <trkpt lat="49.14366" lon="2.02071">
        <ele>148</ele>
        <time>2023-01-09T00:32:49Z</time>
      </trkpt>
      <trkpt lat="49.14356" lon="2.02075">
        <ele>149</ele>
        <time>2023-01-09T00:33:03Z</time>
      </trkpt>
      <trkpt lat="49.14338" lon="2.02094">
        <ele>150</ele>
        <time>2023-01-09T00:33:32Z</time>
      </trkpt>
      <trkpt lat="49.14323" lon="2.02103">
        <ele>151</ele>
        <time>2023-01-09T00:33:53Z</time>
      </trkpt>
      <trkpt lat="49.14286" lon="2.02151">
        <ele>153</ele>
        <time>2023-01-09T00:34:58Z</time>
      </trkpt>
      <trkpt lat="49.14284" lon="2.02163">
        <ele>153</ele>
        <time>2023-01-09T00:35:09Z</time>
      </trkpt>
    </trkseg>
  </trk>
</gpx>